sensor_id;sensor_type;location;lat;lon;timestamp;P1;durP1;ratioP1;P2;durP2;ratioP2
21721;SDS011;11023;48.274;7.794;2024-01-30T00:01:22;14.18;;;5.43;;
21721;SDS011;11023;48.274;7.794;2024-01-30T00:03:47;10.25;;;4.97;;
21721;SDS011;11023;48.274;7.794;2024-01-30T00:06:13;11.50;;;5.30;;
21721;SDS011;11023;48.274;7.794;2024-01-30T00:08:39;9.90;;;5.03;;
21721;SDS011;11023;48.274;7.794;2024-01-30T00:11:05;11.73;;;5.53;;
21721;SDS011;11023;48.274;7.794;2024-01-30T00:13:32;11.10;;;5.18;;
21721;SDS011;11023;48.274;7.794;2024-01-30T00:15:59;10.38;;;5.25;;
21721;SDS011;11023;48.274;7.794;2024-01-30T00:18:25;10.75;;;4.97;;
21721;SDS011;11023;48.274;7.794;2024-01-30T00:20:50;8.65;;;3.70;;
21721;SDS011;11023;48.274;7.794;2024-01-30T00:23:16;11.93;;;4.68;;
21721;SDS011;11023;48.274;7.794;2024-01-30T00:25:43;9.10;;;4.75;;
21721;SDS011;11023;48.274;7.794;2024-01-30T00:28:08;9.55;;;4.90;;
21721;SDS011;11023;48.274;7.794;2024-01-30T00:30:34;9.77;;;5.05;;
21721;SDS011;11023;48.274;7.794;2024-01-30T00:32:59;13.70;;;5.22;;
21721;SDS011;11023;48.274;7.794;2024-01-30T00:35:25;14.80;;;5.32;;
21721;SDS011;11023;48.274;7.794;2024-01-30T00:37:52;11.55;;;5.50;;
21721;SDS011;11023;48.274;7.794;2024-01-30T00:40:17;8.25;;;4.82;;
21721;SDS011;11023;48.274;7.794;2024-01-30T00:42:43;13.55;;;5.30;;
21721;SDS011;11023;48.274;7.794;2024-01-30T00:45:13;11.23;;;4.55;;
21721;SDS011;11023;48.274;7.794;2024-01-30T00:47:39;8.63;;;4.60;;
21721;SDS011;11023;48.274;7.794;2024-01-30T00:50:05;8.13;;;4.28;;
21721;SDS011;11023;48.274;7.794;2024-01-30T00:52:31;12.70;;;3.97;;
21721;SDS011;11023;48.274;7.794;2024-01-30T00:54:58;8.75;;;3.88;;
21721;SDS011;11023;48.274;7.794;2024-01-30T00:57:27;9.73;;;4.55;;
21721;SDS011;11023;48.274;7.794;2024-01-30T00:59:55;10.77;;;3.95;;
21721;SDS011;11023;48.274;7.794;2024-01-30T01:02:21;7.40;;;3.78;;
21721;SDS011;11023;48.274;7.794;2024-01-30T01:04:46;12.65;;;4.53;;
21721;SDS011;11023;48.274;7.794;2024-01-30T01:07:12;11.45;;;4.43;;
21721;SDS011;11023;48.274;7.794;2024-01-30T01:09:38;7.15;;;3.72;;
21721;SDS011;11023;48.274;7.794;2024-01-30T01:12:04;8.50;;;4.10;;
21721;SDS011;11023;48.274;7.794;2024-01-30T01:14:30;8.43;;;3.70;;
21721;SDS011;11023;48.274;7.794;2024-01-30T01:16:58;12.38;;;3.45;;
21721;SDS011;11023;48.274;7.794;2024-01-30T01:19:24;9.18;;;3.55;;
21721;SDS011;11023;48.274;7.794;2024-01-30T01:21:49;6.50;;;3.30;;
21721;SDS011;11023;48.274;7.794;2024-01-30T01:24:15;9.68;;;3.38;;
21721;SDS011;11023;48.274;7.794;2024-01-30T01:26:41;6.32;;;3.25;;
21721;SDS011;11023;48.274;7.794;2024-01-30T01:29:06;6.40;;;2.90;;
21721;SDS011;11023;48.274;7.794;2024-01-30T01:31:37;6.57;;;2.60;;
21721;SDS011;11023;48.274;7.794;2024-01-30T01:34:11;4.97;;;2.63;;
21721;SDS011;11023;48.274;7.794;2024-01-30T01:36:37;5.85;;;3.10;;
21721;SDS011;11023;48.274;7.794;2024-01-30T01:39:03;5.75;;;2.70;;
21721;SDS011;11023;48.274;7.794;2024-01-30T01:41:32;4.97;;;2.72;;
21721;SDS011;11023;48.274;7.794;2024-01-30T01:43:58;13.07;;;2.88;;
21721;SDS011;11023;48.274;7.794;2024-01-30T01:46:29;5.65;;;2.70;;
21721;SDS011;11023;48.274;7.794;2024-01-30T01:49:00;7.65;;;3.45;;
21721;SDS011;11023;48.274;7.794;2024-01-30T01:51:27;9.57;;;3.17;;
21721;SDS011;11023;48.274;7.794;2024-01-30T01:53:55;7.88;;;2.83;;
21721;SDS011;11023;48.274;7.794;2024-01-30T01:56:25;6.65;;;2.78;;
21721;SDS011;11023;48.274;7.794;2024-01-30T01:58:52;8.77;;;2.95;;
21721;SDS011;11023;48.274;7.794;2024-01-30T02:01:20;5.97;;;2.83;;
21721;SDS011;11023;48.274;7.794;2024-01-30T02:03:46;5.20;;;2.72;;
21721;SDS011;11023;48.274;7.794;2024-01-30T02:06:15;8.60;;;3.17;;
21721;SDS011;11023;48.274;7.794;2024-01-30T02:08:42;7.10;;;3.42;;
21721;SDS011;11023;48.274;7.794;2024-01-30T02:11:08;6.28;;;3.20;;
21721;SDS011;11023;48.274;7.794;2024-01-30T02:13:35;5.55;;;3.10;;
21721;SDS011;11023;48.274;7.794;2024-01-30T02:16:01;6.32;;;2.97;;
21721;SDS011;11023;48.274;7.794;2024-01-30T02:18:27;6.50;;;2.95;;
21721;SDS011;11023;48.274;7.794;2024-01-30T02:20:53;9.43;;;2.90;;
21721;SDS011;11023;48.274;7.794;2024-01-30T02:23:22;7.60;;;3.17;;
21721;SDS011;11023;48.274;7.794;2024-01-30T02:25:50;6.65;;;2.78;;
21721;SDS011;11023;48.274;7.794;2024-01-30T02:28:18;4.85;;;3.20;;
21721;SDS011;11023;48.274;7.794;2024-01-30T02:30:45;5.00;;;2.90;;
21721;SDS011;11023;48.274;7.794;2024-01-30T02:33:14;8.88;;;3.17;;
21721;SDS011;11023;48.274;7.794;2024-01-30T02:35:40;8.73;;;3.55;;
21721;SDS011;11023;48.274;7.794;2024-01-30T02:38:07;8.35;;;3.33;;
21721;SDS011;11023;48.274;7.794;2024-01-30T02:40:33;6.28;;;2.67;;
21721;SDS011;11023;48.274;7.794;2024-01-30T02:42:59;7.00;;;3.45;;
21721;SDS011;11023;48.274;7.794;2024-01-30T02:45:26;5.85;;;2.75;;
21721;SDS011;11023;48.274;7.794;2024-01-30T02:47:52;8.38;;;3.38;;
21721;SDS011;11023;48.274;7.794;2024-01-30T02:50:18;7.20;;;3.25;;
21721;SDS011;11023;48.274;7.794;2024-01-30T02:52:44;6.20;;;2.72;;
21721;SDS011;11023;48.274;7.794;2024-01-30T02:55:10;7.28;;;3.05;;
21721;SDS011;11023;48.274;7.794;2024-01-30T02:57:35;10.20;;;3.33;;
21721;SDS011;11023;48.274;7.794;2024-01-30T03:00:02;5.63;;;3.10;;
21721;SDS011;11023;48.274;7.794;2024-01-30T03:02:30;5.35;;;2.95;;
21721;SDS011;11023;48.274;7.794;2024-01-30T03:04:56;10.15;;;2.90;;
21721;SDS011;11023;48.274;7.794;2024-01-30T03:07:22;12.23;;;3.60;;
21721;SDS011;11023;48.274;7.794;2024-01-30T03:09:47;5.13;;;2.88;;
21721;SDS011;11023;48.274;7.794;2024-01-30T03:12:13;8.43;;;3.67;;
21721;SDS011;11023;48.274;7.794;2024-01-30T03:14:42;7.18;;;2.78;;
21721;SDS011;11023;48.274;7.794;2024-01-30T03:17:09;6.03;;;3.03;;
21721;SDS011;11023;48.274;7.794;2024-01-30T03:19:34;6.43;;;2.95;;
21721;SDS011;11023;48.274;7.794;2024-01-30T03:22:00;7.00;;;3.33;;
21721;SDS011;11023;48.274;7.794;2024-01-30T03:24:26;5.35;;;2.58;;
21721;SDS011;11023;48.274;7.794;2024-01-30T03:26:52;5.68;;;2.67;;
21721;SDS011;11023;48.274;7.794;2024-01-30T03:29:18;7.30;;;3.08;;
21721;SDS011;11023;48.274;7.794;2024-01-30T03:31:43;7.10;;;3.08;;
21721;SDS011;11023;48.274;7.794;2024-01-30T03:34:10;5.13;;;2.92;;
21721;SDS011;11023;48.274;7.794;2024-01-30T03:36:36;6.50;;;2.72;;
21721;SDS011;11023;48.274;7.794;2024-01-30T03:39:01;3.67;;;2.35;;
21721;SDS011;11023;48.274;7.794;2024-01-30T03:41:27;4.43;;;2.40;;
21721;SDS011;11023;48.274;7.794;2024-01-30T03:43:53;5.80;;;2.78;;
21721;SDS011;11023;48.274;7.794;2024-01-30T03:46:19;6.07;;;2.78;;
21721;SDS011;11023;48.274;7.794;2024-01-30T03:48:45;6.55;;;2.38;;
21721;SDS011;11023;48.274;7.794;2024-01-30T03:51:11;5.72;;;3.00;;
21721;SDS011;11023;48.274;7.794;2024-01-30T03:53:42;8.07;;;3.28;;
21721;SDS011;11023;48.274;7.794;2024-01-30T03:56:09;5.10;;;3.28;;
21721;SDS011;11023;48.274;7.794;2024-01-30T03:58:37;5.75;;;3.22;;
21721;SDS011;11023;48.274;7.794;2024-01-30T04:01:03;4.90;;;2.80;;
21721;SDS011;11023;48.274;7.794;2024-01-30T04:03:29;6.90;;;3.58;;
21721;SDS011;11023;48.274;7.794;2024-01-30T04:05:55;7.22;;;2.80;;
21721;SDS011;11023;48.274;7.794;2024-01-30T04:08:21;8.55;;;3.65;;
21721;SDS011;11023;48.274;7.794;2024-01-30T04:10:47;4.47;;;2.72;;
21721;SDS011;11023;48.274;7.794;2024-01-30T04:13:12;7.40;;;3.17;;
21721;SDS011;11023;48.274;7.794;2024-01-30T04:15:38;7.13;;;3.03;;
21721;SDS011;11023;48.274;7.794;2024-01-30T04:18:05;8.07;;;3.20;;
21721;SDS011;11023;48.274;7.794;2024-01-30T04:20:31;7.72;;;3.42;;
21721;SDS011;11023;48.274;7.794;2024-01-30T04:22:56;5.25;;;3.40;;
21721;SDS011;11023;48.274;7.794;2024-01-30T04:25:22;8.68;;;3.55;;
21721;SDS011;11023;48.274;7.794;2024-01-30T04:27:48;7.80;;;3.47;;
21721;SDS011;11023;48.274;7.794;2024-01-30T04:30:14;7.45;;;3.13;;
21721;SDS011;11023;48.274;7.794;2024-01-30T04:32:40;5.88;;;3.85;;
21721;SDS011;11023;48.274;7.794;2024-01-30T04:35:06;7.40;;;3.65;;
21721;SDS011;11023;48.274;7.794;2024-01-30T04:37:32;9.75;;;4.20;;
21721;SDS011;11023;48.274;7.794;2024-01-30T04:39:58;6.32;;;3.20;;
21721;SDS011;11023;48.274;7.794;2024-01-30T04:42:23;7.72;;;3.13;;
21721;SDS011;11023;48.274;7.794;2024-01-30T04:44:49;11.30;;;3.78;;
21721;SDS011;11023;48.274;7.794;2024-01-30T04:47:15;6.55;;;3.25;;
21721;SDS011;11023;48.274;7.794;2024-01-30T04:49:41;13.35;;;4.30;;
21721;SDS011;11023;48.274;7.794;2024-01-30T04:52:08;7.30;;;3.38;;
21721;SDS011;11023;48.274;7.794;2024-01-30T04:54:34;9.70;;;3.90;;
21721;SDS011;11023;48.274;7.794;2024-01-30T04:57:01;8.52;;;3.83;;
21721;SDS011;11023;48.274;7.794;2024-01-30T04:59:27;11.10;;;3.45;;
21721;SDS011;11023;48.274;7.794;2024-01-30T05:01:53;9.32;;;3.90;;
21721;SDS011;11023;48.274;7.794;2024-01-30T05:04:19;8.70;;;4.25;;
21721;SDS011;11023;48.274;7.794;2024-01-30T05:06:45;7.97;;;4.50;;
21721;SDS011;11023;48.274;7.794;2024-01-30T05:09:11;7.25;;;4.18;;
21721;SDS011;11023;48.274;7.794;2024-01-30T05:11:37;9.93;;;3.90;;
21721;SDS011;11023;48.274;7.794;2024-01-30T05:14:04;8.90;;;3.55;;
21721;SDS011;11023;48.274;7.794;2024-01-30T05:16:31;10.15;;;4.20;;
21721;SDS011;11023;48.274;7.794;2024-01-30T05:18:56;9.02;;;4.43;;
21721;SDS011;11023;48.274;7.794;2024-01-30T05:21:24;19.08;;;4.70;;
21721;SDS011;11023;48.274;7.794;2024-01-30T05:23:50;9.27;;;3.53;;
21721;SDS011;11023;48.274;7.794;2024-01-30T05:26:15;6.72;;;3.92;;
21721;SDS011;11023;48.274;7.794;2024-01-30T05:28:41;8.35;;;3.30;;
21721;SDS011;11023;48.274;7.794;2024-01-30T05:31:09;10.95;;;4.00;;
21721;SDS011;11023;48.274;7.794;2024-01-30T05:33:35;12.18;;;4.55;;
21721;SDS011;11023;48.274;7.794;2024-01-30T05:36:01;8.57;;;3.72;;
21721;SDS011;11023;48.274;7.794;2024-01-30T05:38:28;8.25;;;3.70;;
21721;SDS011;11023;48.274;7.794;2024-01-30T05:40:54;8.90;;;3.58;;
21721;SDS011;11023;48.274;7.794;2024-01-30T05:43:19;7.63;;;3.53;;
21721;SDS011;11023;48.274;7.794;2024-01-30T05:45:45;9.65;;;4.45;;
21721;SDS011;11023;48.274;7.794;2024-01-30T05:48:11;8.05;;;4.10;;
21721;SDS011;11023;48.274;7.794;2024-01-30T05:50:37;9.68;;;3.67;;
21721;SDS011;11023;48.274;7.794;2024-01-30T05:53:02;7.50;;;3.35;;
21721;SDS011;11023;48.274;7.794;2024-01-30T05:55:28;8.23;;;3.90;;
21721;SDS011;11023;48.274;7.794;2024-01-30T05:57:54;9.52;;;3.63;;
21721;SDS011;11023;48.274;7.794;2024-01-30T06:00:21;6.43;;;3.75;;
21721;SDS011;11023;48.274;7.794;2024-01-30T06:02:47;8.13;;;4.05;;
21721;SDS011;11023;48.274;7.794;2024-01-30T06:05:12;7.10;;;3.78;;
21721;SDS011;11023;48.274;7.794;2024-01-30T06:07:40;7.15;;;3.92;;
21721;SDS011;11023;48.274;7.794;2024-01-30T06:10:08;7.43;;;3.80;;
21721;SDS011;11023;48.274;7.794;2024-01-30T06:12:37;7.53;;;3.85;;
21721;SDS011;11023;48.274;7.794;2024-01-30T06:15:03;10.20;;;4.88;;
21721;SDS011;11023;48.274;7.794;2024-01-30T06:17:29;9.00;;;4.18;;
21721;SDS011;11023;48.274;7.794;2024-01-30T06:19:55;10.55;;;5.00;;
21721;SDS011;11023;48.274;7.794;2024-01-30T06:22:21;8.85;;;4.30;;
21721;SDS011;11023;48.274;7.794;2024-01-30T06:24:48;8.38;;;4.30;;
21721;SDS011;11023;48.274;7.794;2024-01-30T06:27:14;7.35;;;3.95;;
21721;SDS011;11023;48.274;7.794;2024-01-30T06:29:41;9.57;;;4.30;;
21721;SDS011;11023;48.274;7.794;2024-01-30T06:32:09;11.57;;;4.45;;
21721;SDS011;11023;48.274;7.794;2024-01-30T06:34:35;11.90;;;4.75;;
21721;SDS011;11023;48.274;7.794;2024-01-30T06:37:01;11.95;;;4.57;;
21721;SDS011;11023;48.274;7.794;2024-01-30T06:39:26;8.63;;;4.03;;
21721;SDS011;11023;48.274;7.794;2024-01-30T06:41:52;6.60;;;3.80;;
21721;SDS011;11023;48.274;7.794;2024-01-30T06:44:18;12.85;;;5.43;;
21721;SDS011;11023;48.274;7.794;2024-01-30T06:46:43;13.05;;;4.82;;
21721;SDS011;11023;48.274;7.794;2024-01-30T06:49:09;9.90;;;4.68;;
21721;SDS011;11023;48.274;7.794;2024-01-30T06:51:35;8.73;;;4.55;;
21721;SDS011;11023;48.274;7.794;2024-01-30T06:54:01;12.63;;;4.30;;
21721;SDS011;11023;48.274;7.794;2024-01-30T06:56:26;8.18;;;3.70;;
21721;SDS011;11023;48.274;7.794;2024-01-30T06:58:53;11.50;;;4.65;;
21721;SDS011;11023;48.274;7.794;2024-01-30T07:01:18;10.02;;;4.28;;
21721;SDS011;11023;48.274;7.794;2024-01-30T07:03:59;12.07;;;5.07;;
21721;SDS011;11023;48.274;7.794;2024-01-30T07:06:45;13.27;;;5.47;;
21721;SDS011;11023;48.274;7.794;2024-01-30T07:09:40;10.98;;;4.68;;
21721;SDS011;11023;48.274;7.794;2024-01-30T07:12:41;10.07;;;4.28;;
21721;SDS011;11023;48.274;7.794;2024-01-30T07:18:17;9.07;;;4.55;;
21721;SDS011;11023;48.274;7.794;2024-01-30T07:20:46;8.68;;;4.55;;
21721;SDS011;11023;48.274;7.794;2024-01-30T07:30:21;11.38;;;4.10;;
21721;SDS011;11023;48.274;7.794;2024-01-30T08:01:37;10.85;;;4.35;;
21721;SDS011;11023;48.274;7.794;2024-01-30T08:04:06;7.10;;;3.75;;
21721;SDS011;11023;48.274;7.794;2024-01-30T08:06:41;9.10;;;4.47;;
21721;SDS011;11023;48.274;7.794;2024-01-30T08:09:16;8.02;;;4.25;;
21721;SDS011;11023;48.274;7.794;2024-01-30T08:12:21;15.45;;;5.25;;
21721;SDS011;11023;48.274;7.794;2024-01-30T08:14:53;10.13;;;4.63;;
21721;SDS011;11023;48.274;7.794;2024-01-30T08:20:14;8.75;;;3.88;;
21721;SDS011;11023;48.274;7.794;2024-01-30T08:23:06;9.95;;;4.32;;
21721;SDS011;11023;48.274;7.794;2024-01-30T08:26:02;8.23;;;4.35;;
21721;SDS011;11023;48.274;7.794;2024-01-30T08:31:46;8.77;;;2.85;;
21721;SDS011;11023;48.274;7.794;2024-01-30T08:38:24;3.20;;;2.08;;
21721;SDS011;11023;48.274;7.794;2024-01-30T08:50:56;6.43;;;3.72;;
21721;SDS011;11023;48.274;7.794;2024-01-30T08:53:41;9.20;;;3.35;;
21721;SDS011;11023;48.274;7.794;2024-01-30T09:05:55;4.93;;;2.63;;
21721;SDS011;11023;48.274;7.794;2024-01-30T09:08:45;6.38;;;2.92;;
21721;SDS011;11023;48.274;7.794;2024-01-30T09:11:28;10.75;;;2.70;;
21721;SDS011;11023;48.274;7.794;2024-01-30T09:17:52;4.57;;;1.95;;
21721;SDS011;11023;48.274;7.794;2024-01-30T09:24:30;5.47;;;2.75;;
21721;SDS011;11023;48.274;7.794;2024-01-30T09:27:38;4.18;;;2.28;;
21721;SDS011;11023;48.274;7.794;2024-01-30T09:30:10;6.90;;;3.38;;
21721;SDS011;11023;48.274;7.794;2024-01-30T09:33:09;7.55;;;3.15;;
21721;SDS011;11023;48.274;7.794;2024-01-30T09:39:02;5.78;;;3.00;;
21721;SDS011;11023;48.274;7.794;2024-01-30T09:45:15;7.32;;;3.85;;
21721;SDS011;11023;48.274;7.794;2024-01-30T09:51:09;6.10;;;3.70;;
21721;SDS011;11023;48.274;7.794;2024-01-30T09:54:11;11.43;;;6.53;;
21721;SDS011;11023;48.274;7.794;2024-01-30T10:06:44;4.72;;;2.90;;
21721;SDS011;11023;48.274;7.794;2024-01-30T10:12:29;7.22;;;3.20;;
21721;SDS011;11023;48.274;7.794;2024-01-30T10:39:59;4.07;;;2.50;;
21721;SDS011;11023;48.274;7.794;2024-01-30T10:43:00;3.88;;;2.00;;
21721;SDS011;11023;48.274;7.794;2024-01-30T10:45:33;5.38;;;2.22;;
21721;SDS011;11023;48.274;7.794;2024-01-30T10:48:08;6.95;;;2.83;;
21721;SDS011;11023;48.274;7.794;2024-01-30T10:50:47;4.13;;;2.78;;
21721;SDS011;11023;48.274;7.794;2024-01-30T10:56:22;4.38;;;2.30;;
21721;SDS011;11023;48.274;7.794;2024-01-30T10:58:58;6.95;;;2.30;;
21721;SDS011;11023;48.274;7.794;2024-01-30T11:05:42;4.70;;;2.20;;
21721;SDS011;11023;48.274;7.794;2024-01-30T11:08:31;4.40;;;2.50;;
21721;SDS011;11023;48.274;7.794;2024-01-30T11:11:08;4.45;;;2.10;;
21721;SDS011;11023;48.274;7.794;2024-01-30T11:16:36;3.13;;;1.98;;
21721;SDS011;11023;48.274;7.794;2024-01-30T11:19:46;4.95;;;2.15;;
21721;SDS011;11023;48.274;7.794;2024-01-30T11:59:54;3.60;;;2.03;;
21721;SDS011;11023;48.274;7.794;2024-01-30T12:02:58;7.80;;;2.13;;
21721;SDS011;11023;48.274;7.794;2024-01-30T12:08:34;6.40;;;2.03;;
21721;SDS011;11023;48.274;7.794;2024-01-30T12:11:28;5.05;;;2.53;;
21721;SDS011;11023;48.274;7.794;2024-01-30T12:14:18;3.45;;;2.10;;
21721;SDS011;11023;48.274;7.794;2024-01-30T12:16:56;2.35;;;1.70;;
21721;SDS011;11023;48.274;7.794;2024-01-30T12:19:38;4.47;;;1.80;;
21721;SDS011;11023;48.274;7.794;2024-01-30T12:22:45;4.63;;;2.42;;
21721;SDS011;11023;48.274;7.794;2024-01-30T12:25:18;2.58;;;2.10;;
21721;SDS011;11023;48.274;7.794;2024-01-30T12:28:15;5.40;;;2.53;;
21721;SDS011;11023;48.274;7.794;2024-01-30T12:30:49;3.90;;;2.75;;
21721;SDS011;11023;48.274;7.794;2024-01-30T12:33:18;3.45;;;2.35;;
21721;SDS011;11023;48.274;7.794;2024-01-30T12:36:06;4.20;;;2.50;;
21721;SDS011;11023;48.274;7.794;2024-01-30T12:38:42;6.93;;;2.72;;
21721;SDS011;11023;48.274;7.794;2024-01-30T12:41:14;4.20;;;2.30;;
21721;SDS011;11023;48.274;7.794;2024-01-30T12:43:57;6.55;;;2.70;;
21721;SDS011;11023;48.274;7.794;2024-01-30T12:46:54;3.85;;;2.00;;
21721;SDS011;11023;48.274;7.794;2024-01-30T12:49:38;5.78;;;2.45;;
21721;SDS011;11023;48.274;7.794;2024-01-30T12:55:18;6.50;;;2.30;;
21721;SDS011;11023;48.274;7.794;2024-01-30T12:57:54;2.97;;;1.80;;
21721;SDS011;11023;48.274;7.794;2024-01-30T13:00:47;3.88;;;2.28;;
21721;SDS011;11023;48.274;7.794;2024-01-30T13:03:35;7.07;;;2.92;;
21721;SDS011;11023;48.274;7.794;2024-01-30T13:06:27;4.63;;;2.40;;
21721;SDS011;11023;48.274;7.794;2024-01-30T13:08:53;7.85;;;3.10;;
21721;SDS011;11023;48.274;7.794;2024-01-30T13:11:19;5.63;;;2.50;;
21721;SDS011;11023;48.274;7.794;2024-01-30T13:13:45;5.28;;;2.20;;
21721;SDS011;11023;48.274;7.794;2024-01-30T13:16:10;5.30;;;2.33;;
21721;SDS011;11023;48.274;7.794;2024-01-30T13:18:36;6.57;;;2.50;;
21721;SDS011;11023;48.274;7.794;2024-01-30T13:21:01;5.22;;;2.17;;
21721;SDS011;11023;48.274;7.794;2024-01-30T13:23:27;3.70;;;2.70;;
21721;SDS011;11023;48.274;7.794;2024-01-30T13:25:53;3.50;;;2.30;;
21721;SDS011;11023;48.274;7.794;2024-01-30T13:28:22;3.75;;;2.67;;
21721;SDS011;11023;48.274;7.794;2024-01-30T13:30:48;3.72;;;2.17;;
21721;SDS011;11023;48.274;7.794;2024-01-30T13:33:14;7.55;;;2.70;;
21721;SDS011;11023;48.274;7.794;2024-01-30T13:35:39;5.85;;;2.75;;
21721;SDS011;11023;48.274;7.794;2024-01-30T13:38:05;4.22;;;2.35;;
21721;SDS011;11023;48.274;7.794;2024-01-30T13:40:30;3.45;;;2.13;;
21721;SDS011;11023;48.274;7.794;2024-01-30T13:42:56;6.30;;;2.88;;
21721;SDS011;11023;48.274;7.794;2024-01-30T13:45:22;5.68;;;2.35;;
21721;SDS011;11023;48.274;7.794;2024-01-30T13:47:47;4.70;;;2.33;;
21721;SDS011;11023;48.274;7.794;2024-01-30T13:50:13;4.43;;;2.40;;
21721;SDS011;11023;48.274;7.794;2024-01-30T13:52:41;4.43;;;2.63;;
21721;SDS011;11023;48.274;7.794;2024-01-30T13:55:10;3.17;;;2.03;;
21721;SDS011;11023;48.274;7.794;2024-01-30T13:57:36;8.07;;;2.78;;
21721;SDS011;11023;48.274;7.794;2024-01-30T14:00:03;6.07;;;2.70;;
21721;SDS011;11023;48.274;7.794;2024-01-30T14:02:31;3.92;;;2.22;;
21721;SDS011;11023;48.274;7.794;2024-01-30T14:04:57;4.32;;;2.33;;
21721;SDS011;11023;48.274;7.794;2024-01-30T14:07:22;7.93;;;2.50;;
21721;SDS011;11023;48.274;7.794;2024-01-30T14:09:48;4.03;;;2.10;;
21721;SDS011;11023;48.274;7.794;2024-01-30T14:12:14;4.97;;;1.83;;
21721;SDS011;11023;48.274;7.794;2024-01-30T14:14:40;3.20;;;2.13;;
21721;SDS011;11023;48.274;7.794;2024-01-30T14:17:06;5.50;;;2.33;;
21721;SDS011;11023;48.274;7.794;2024-01-30T14:19:35;3.72;;;2.15;;
21721;SDS011;11023;48.274;7.794;2024-01-30T14:22:01;3.38;;;2.08;;
21721;SDS011;11023;48.274;7.794;2024-01-30T14:24:27;3.42;;;2.03;;
21721;SDS011;11023;48.274;7.794;2024-01-30T14:26:52;3.55;;;1.83;;
21721;SDS011;11023;48.274;7.794;2024-01-30T14:29:18;4.28;;;2.00;;
21721;SDS011;11023;48.274;7.794;2024-01-30T14:31:44;5.07;;;1.92;;
21721;SDS011;11023;48.274;7.794;2024-01-30T14:34:10;4.90;;;2.67;;
21721;SDS011;11023;48.274;7.794;2024-01-30T14:36:38;5.95;;;2.42;;
21721;SDS011;11023;48.274;7.794;2024-01-30T14:39:04;3.83;;;2.08;;
21721;SDS011;11023;48.274;7.794;2024-01-30T14:41:31;5.90;;;1.92;;
21721;SDS011;11023;48.274;7.794;2024-01-30T14:43:57;4.55;;;2.20;;
21721;SDS011;11023;48.274;7.794;2024-01-30T14:46:23;6.07;;;2.25;;
21721;SDS011;11023;48.274;7.794;2024-01-30T14:48:51;5.85;;;2.30;;
21721;SDS011;11023;48.274;7.794;2024-01-30T14:51:17;4.07;;;2.13;;
21721;SDS011;11023;48.274;7.794;2024-01-30T14:53:46;3.30;;;2.08;;
21721;SDS011;11023;48.274;7.794;2024-01-30T14:56:12;4.28;;;2.08;;
21721;SDS011;11023;48.274;7.794;2024-01-30T14:58:38;5.45;;;2.10;;
21721;SDS011;11023;48.274;7.794;2024-01-30T15:01:04;4.07;;;2.17;;
21721;SDS011;11023;48.274;7.794;2024-01-30T15:03:30;3.92;;;2.30;;
21721;SDS011;11023;48.274;7.794;2024-01-30T15:05:56;7.00;;;2.25;;
21721;SDS011;11023;48.274;7.794;2024-01-30T15:08:22;4.78;;;2.00;;
21721;SDS011;11023;48.274;7.794;2024-01-30T15:10:48;4.80;;;2.30;;
21721;SDS011;11023;48.274;7.794;2024-01-30T15:13:15;4.07;;;2.30;;
21721;SDS011;11023;48.274;7.794;2024-01-30T15:15:41;4.65;;;1.95;;
21721;SDS011;11023;48.274;7.794;2024-01-30T15:18:07;8.95;;;2.50;;
21721;SDS011;11023;48.274;7.794;2024-01-30T15:20:36;4.80;;;2.28;;
21721;SDS011;11023;48.274;7.794;2024-01-30T15:23:01;3.60;;;2.50;;
21721;SDS011;11023;48.274;7.794;2024-01-30T15:25:27;6.75;;;2.28;;
21721;SDS011;11023;48.274;7.794;2024-01-30T15:27:54;5.90;;;2.58;;
21721;SDS011;11023;48.274;7.794;2024-01-30T15:30:20;3.42;;;2.20;;
21721;SDS011;11023;48.274;7.794;2024-01-30T15:32:46;4.45;;;2.30;;
21721;SDS011;11023;48.274;7.794;2024-01-30T15:35:12;3.75;;;2.47;;
21721;SDS011;11023;48.274;7.794;2024-01-30T15:37:38;6.25;;;2.95;;
21721;SDS011;11023;48.274;7.794;2024-01-30T15:40:03;6.38;;;2.70;;
21721;SDS011;11023;48.274;7.794;2024-01-30T15:42:31;4.00;;;2.70;;
21721;SDS011;11023;48.274;7.794;2024-01-30T15:44:57;4.20;;;2.28;;
21721;SDS011;11023;48.274;7.794;2024-01-30T15:47:24;5.05;;;3.05;;
21721;SDS011;11023;48.274;7.794;2024-01-30T15:49:50;6.90;;;2.78;;
21721;SDS011;11023;48.274;7.794;2024-01-30T15:52:16;3.80;;;2.55;;
21721;SDS011;11023;48.274;7.794;2024-01-30T15:54:45;5.28;;;2.72;;
21721;SDS011;11023;48.274;7.794;2024-01-30T15:57:12;6.82;;;2.70;;
21721;SDS011;11023;48.274;7.794;2024-01-30T15:59:38;5.13;;;2.60;;
21721;SDS011;11023;48.274;7.794;2024-01-30T16:02:03;5.68;;;2.80;;
21721;SDS011;11023;48.274;7.794;2024-01-30T16:04:30;4.22;;;2.70;;
21721;SDS011;11023;48.274;7.794;2024-01-30T16:06:55;4.53;;;2.22;;
21721;SDS011;11023;48.274;7.794;2024-01-30T16:09:24;4.63;;;2.22;;
21721;SDS011;11023;48.274;7.794;2024-01-30T16:11:50;3.85;;;2.20;;
21721;SDS011;11023;48.274;7.794;2024-01-30T16:14:16;6.05;;;2.72;;
21721;SDS011;11023;48.274;7.794;2024-01-30T16:16:41;5.57;;;2.22;;
21721;SDS011;11023;48.274;7.794;2024-01-30T16:19:07;3.72;;;2.22;;
21721;SDS011;11023;48.274;7.794;2024-01-30T16:21:32;3.40;;;2.22;;
21721;SDS011;11023;48.274;7.794;2024-01-30T16:23:59;3.90;;;2.10;;
21721;SDS011;11023;48.274;7.794;2024-01-30T16:26:25;4.25;;;2.33;;
21721;SDS011;11023;48.274;7.794;2024-01-30T16:28:51;4.32;;;2.03;;
21721;SDS011;11023;48.274;7.794;2024-01-30T16:31:17;4.20;;;2.60;;
21721;SDS011;11023;48.274;7.794;2024-01-30T16:33:46;8.43;;;2.58;;
21721;SDS011;11023;48.274;7.794;2024-01-30T16:36:13;5.72;;;2.83;;
21721;SDS011;11023;48.274;7.794;2024-01-30T16:38:39;5.13;;;2.25;;
21721;SDS011;11023;48.274;7.794;2024-01-30T16:41:05;9.43;;;3.10;;
21721;SDS011;11023;48.274;7.794;2024-01-30T16:43:31;8.00;;;3.08;;
21721;SDS011;11023;48.274;7.794;2024-01-30T16:45:56;6.00;;;3.38;;
21721;SDS011;11023;48.274;7.794;2024-01-30T16:48:23;8.52;;;3.63;;
21721;SDS011;11023;48.274;7.794;2024-01-30T16:50:49;6.53;;;2.75;;
21721;SDS011;11023;48.274;7.794;2024-01-30T16:53:15;6.75;;;3.13;;
21721;SDS011;11023;48.274;7.794;2024-01-30T16:55:41;6.03;;;4.15;;
21721;SDS011;11023;48.274;7.794;2024-01-30T16:58:06;9.38;;;4.18;;
21721;SDS011;11023;48.274;7.794;2024-01-30T17:00:36;7.22;;;3.85;;
21721;SDS011;11023;48.274;7.794;2024-01-30T17:03:03;8.90;;;4.13;;
21721;SDS011;11023;48.274;7.794;2024-01-30T17:05:28;10.55;;;4.30;;
21721;SDS011;11023;48.274;7.794;2024-01-30T17:07:55;6.40;;;3.90;;
21721;SDS011;11023;48.274;7.794;2024-01-30T17:10:23;11.18;;;4.25;;
21721;SDS011;11023;48.274;7.794;2024-01-30T17:12:48;6.03;;;4.00;;
21721;SDS011;11023;48.274;7.794;2024-01-30T17:15:14;12.32;;;4.10;;
21721;SDS011;11023;48.274;7.794;2024-01-30T17:17:40;10.45;;;4.07;;
21721;SDS011;11023;48.274;7.794;2024-01-30T17:20:06;8.23;;;4.40;;
21721;SDS011;11023;48.274;7.794;2024-01-30T17:22:32;8.05;;;4.13;;
21721;SDS011;11023;48.274;7.794;2024-01-30T17:24:58;11.95;;;4.45;;
21721;SDS011;11023;48.274;7.794;2024-01-30T17:27:23;7.18;;;4.45;;
21721;SDS011;11023;48.274;7.794;2024-01-30T17:29:49;8.75;;;4.68;;
21721;SDS011;11023;48.274;7.794;2024-01-30T17:32:15;10.77;;;4.47;;
21721;SDS011;11023;48.274;7.794;2024-01-30T17:34:40;10.48;;;5.25;;
21721;SDS011;11023;48.274;7.794;2024-01-30T17:37:07;13.65;;;5.00;;
21721;SDS011;11023;48.274;7.794;2024-01-30T17:39:32;8.30;;;3.67;;
21721;SDS011;11023;48.274;7.794;2024-01-30T17:41:58;12.05;;;3.88;;
21721;SDS011;11023;48.274;7.794;2024-01-30T17:44:24;6.13;;;3.33;;
21721;SDS011;11023;48.274;7.794;2024-01-30T17:46:50;6.50;;;3.33;;
21721;SDS011;11023;48.274;7.794;2024-01-30T17:49:16;6.15;;;3.30;;
21721;SDS011;11023;48.274;7.794;2024-01-30T17:51:42;7.53;;;3.30;;
21721;SDS011;11023;48.274;7.794;2024-01-30T17:54:07;8.02;;;3.30;;
21721;SDS011;11023;48.274;7.794;2024-01-30T17:56:33;5.97;;;3.50;;